Time;durP1;ratioP1;P1;durP2;ratioP2;P2;SDS_P1;SDS_P2;PMS_P1;PMS_P2;Temp;Humidity;BMP_temperature;BMP_pressure;BME280_temperature;BME280_humidity;BME280_pressure;Samples;Min_cycle;Max_cycle;Signal;HPM_P1;HPM_P2
2022/07/19 18:10:29;;;;;;;3.35;1.30;;;;;;;34.73;16.79;100011.97;5109780;27;20429;-73
2022/07/19 18:12:54;;;;;;;3.10;1.30;;;;;;;34.78;16.81;100016.91;5109773;28;20064;-75
2022/07/19 18:15:20;;;;;;;3.00;1.05;;;;;;;34.71;16.58;100011.69;5110061;28;20453;-74
2022/07/19 18:17:46;;;;;;;3.00;1.30;;;;;;;34.69;16.56;100015.81;5110102;28;20031;-75
2022/07/19 18:20:12;;;;;;;2.90;1.17;;;;;;;34.66;16.35;100013.22;5109766;28;20474;-75
2022/07/19 18:22:37;;;;;;;6.40;1.30;;;;;;;34.61;16.58;100013.97;5109771;28;20035;-75
2022/07/19 18:25:03;;;;;;;2.60;1.10;;;;;;;34.48;16.29;100016.44;5108511;28;20023;-74
2022/07/19 18:27:28;;;;;;;2.60;1.17;;;;;;;34.45;16.71;100012.56;5109884;28;20245;-75
2022/07/19 18:29:54;;;;;;;2.88;1.25;;;;;;;34.44;16.26;100013.06;5109486;28;20023;-75
2022/07/19 18:32:20;;;;;;;1.37;0.70;;;;;;;34.39;16.65;100014.56;5110206;28;20040;-75
2022/07/19 18:34:45;;;;;;;3.42;1.10;;;;;;;34.32;16.53;100018.59;5109661;28;20258;-74
2022/07/19 18:37:12;;;;;;;2.30;1.00;;;;;;;34.25;16.65;100015.44;5094546;28;20090;-74
2022/07/19 18:39:39;;;;;;;3.22;1.20;;;;;;;34.23;16.84;100017.97;5089263;28;20449;-76
2022/07/19 18:42:09;;;;;;;2.55;1.20;;;;;;;34.17;17.21;100020.75;5088763;28;20032;-76
2022/07/19 18:44:35;;;;;;;3.50;1.67;;;;;;;34.14;17.15;100024.59;5088901;28;20031;-75
2022/07/19 18:47:03;;;;;;;3.40;1.40;;;;;;;34.07;17.00;100027.84;5089177;28;20066;-75
2022/07/19 18:49:29;;;;;;;4.88;1.60;;;;;;;33.99;17.36;100023.94;5088699;28;20454;-76
2022/07/19 18:51:54;;;;;;;3.22;1.40;;;;;;;33.95;17.58;100020.56;5088677;28;20040;-75
2022/07/19 18:54:20;;;;;;;3.38;1.40;;;;;;;33.74;17.72;100023.38;5088966;28;20082;-76
2022/07/19 18:56:45;;;;;;;3.80;1.30;;;;;;;33.75;18.09;100024.94;5089199;28;20051;-75
2022/07/19 18:59:11;;;;;;;3.00;1.30;;;;;;;33.70;18.03;100025.66;5089060;28;20346;-74
2022/07/19 19:01:36;;;;;;;3.55;1.38;;;;;;;33.66;18.10;100030.75;5088475;28;20033;-75
2022/07/19 19:04:01;;;;;;;4.43;1.48;;;;;;;33.60;18.12;100026.31;5088446;28;20033;-76
2022/07/19 19:06:27;;;;;;;2.95;1.30;;;;;;;33.46;18.45;100025.13;5088914;28;20339;-76
2022/07/19 19:08:52;;;;;;;3.00;1.20;;;;;;;33.35;18.60;100025.00;5098564;28;20101;-76
2022/07/19 19:11:18;;;;;;;2.75;1.23;;;;;;;33.20;18.79;100031.44;5115525;28;20415;-75
2022/07/19 19:13:43;;;;;;;2.63;1.37;;;;;;;33.19;19.01;100024.25;5112521;28;20028;-75
2022/07/19 19:16:09;;;;;;;4.30;1.40;;;;;;;33.20;18.74;100039.91;5112397;28;20262;-75
2022/07/19 19:18:34;;;;;;;3.95;1.15;;;;;;;33.21;18.79;100037.84;5111714;28;20099;-75
2022/07/19 19:20:59;;;;;;;3.40;1.10;;;;;;;33.15;19.01;100029.31;5101449;28;20388;-75
2022/07/19 19:23:25;;;;;;;3.30;1.33;;;;;;;33.07;19.33;100033.81;5096312;28;20027;-76
2022/07/19 19:25:50;;;;;;;2.97;1.42;;;;;;;32.87;19.26;100036.63;5095558;28;20369;-75
2022/07/19 19:28:16;;;;;;;2.78;1.40;;;;;;;32.77;19.15;100027.50;5095211;28;20389;-75
2022/07/19 19:30:41;;;;;;;3.25;1.63;;;;;;;32.71;19.67;100034.28;5095781;28;20384;-76
2022/07/19 19:33:08;;;;;;;6.55;1.80;;;;;;;32.66;19.74;100037.81;5095113;28;20032;-76
2022/07/19 19:35:34;;;;;;;2.22;1.10;;;;;;;32.69;19.42;100046.06;5095283;28;20024;-76
2022/07/19 19:38:03;;;;;;;4.32;1.08;;;;;;;32.63;19.62;100050.84;5094908;28;20354;-75
2022/07/19 19:40:30;;;;;;;3.55;1.70;;;;;;;32.56;19.85;100040.72;5094977;28;20465;-75
2022/07/19 19:42:55;;;;;;;3.42;1.45;;;;;;;32.48;19.89;100044.44;5094988;28;20028;-75
2022/07/19 19:45:20;;;;;;;3.35;1.35;;;;;;;32.40;19.94;100044.03;5094845;28;20462;-74
2022/07/19 19:47:46;;;;;;;3.35;1.20;;;;;;;32.39;19.89;100047.34;5076465;28;20431;-74
2022/07/19 19:50:13;;;;;;;2.53;1.33;;;;;;;32.31;19.89;100053.41;5094439;28;20122;-74
2022/07/19 19:52:38;;;;;;;5.90;1.50;;;;;;;32.26;19.99;100056.09;5094844;28;20031;-75
2022/07/19 19:55:04;;;;;;;2.38;0.95;;;;;;;32.20;20.34;100058.00;5094647;28;20434;-77
2022/07/19 19:57:30;;;;;;;3.28;1.23;;;;;;;32.13;20.33;100047.16;5094791;28;20446;-75
2022/07/19 19:59:55;;;;;;;3.97;1.30;;;;;;;32.08;20.57;100050.63;5076403;28;20024;-76
2022/07/19 20:02:21;;;;;;;3.65;1.35;;;;;;;31.96;20.48;100058.88;5094309;28;20024;-76
2022/07/19 20:04:46;;;;;;;3.20;1.40;;;;;;;31.86;20.47;100057.41;5094314;28;20035;-76
2022/07/19 20:07:12;;;;;;;3.58;1.15;;;;;;;31.75;21.00;100062.03;5094168;28;20498;-77
2022/07/19 20:09:37;;;;;;;7.28;1.80;;;;;;;31.63;21.19;100061.00;5093966;28;20044;-77
2022/07/19 20:12:03;;;;;;;3.17;1.30;;;;;;;31.62;20.74;100053.84;5094068;28;20052;-77
2022/07/19 20:14:28;;;;;;;3.13;1.40;;;;;;;31.66;20.78;100051.59;5094465;28;20027;-76
2022/07/19 20:16:53;;;;;;;2.90;1.38;;;;;;;31.62;21.18;100053.84;5093825;28;20478;-78
2022/07/19 20:19:19;;;;;;;3.08;1.30;;;;;;;31.57;21.28;100052.44;5094245;28;20115;-77
2022/07/19 20:21:44;;;;;;;4.38;1.48;;;;;;;31.49;21.45;100056.88;5094366;28;20473;-78
2022/07/19 20:24:11;;;;;;;3.17;1.15;;;;;;;31.38;21.51;100054.59;5094106;28;20020;-77
2022/07/19 20:26:36;;;;;;;4.60;1.55;;;;;;;31.28;21.56;100055.16;5093631;28;20106;-78
2022/07/19 20:29:02;;;;;;;3.50;1.33;;;;;;;31.25;21.35;100056.91;5093924;28;20170;-78
2022/07/19 20:31:28;;;;;;;2.67;1.30;;;;;;;31.26;21.61;100049.25;5093815;28;20526;-77
2022/07/19 20:33:53;;;;;;;3.47;1.45;;;;;;;31.30;21.45;100049.84;5093447;28;20511;-78
2022/07/19 20:36:18;;;;;;;3.55;1.33;;;;;;;31.26;21.23;100049.25;5093938;28;20103;-77
2022/07/19 20:38:45;;;;;;;3.13;1.55;;;;;;;31.20;21.70;100051.91;5093713;28;20109;-77
2022/07/19 20:41:10;;;;;;;3.03;1.30;;;;;;;31.09;21.59;100046.81;5093818;28;20082;-77
2022/07/19 20:43:37;;;;;;;4.65;1.58;;;;;;;31.01;21.48;100051.22;5093363;28;20368;-77
2022/07/19 20:46:02;;;;;;;3.45;1.75;;;;;;;30.98;22.06;100054.22;5093580;28;20082;-78
2022/07/19 20:48:28;;;;;;;3.33;1.30;;;;;;;30.99;21.68;100052.97;5093489;28;20063;-78
2022/07/19 20:50:53;;;;;;;3.08;1.30;;;;;;;30.98;21.75;100054.22;5093611;28;20085;-78
2022/07/19 20:53:18;;;;;;;3.20;1.42;;;;;;;30.95;21.56;100050.31;5093343;28;20032;-77
2022/07/19 20:55:44;;;;;;;5.70;1.98;;;;;;;30.90;21.85;100050.97;5093245;28;20037;-77
2022/07/19 20:58:09;;;;;;;3.67;1.40;;;;;;;30.88;21.74;100053.47;5093156;28;20024;-77
2022/07/19 21:00:35;;;;;;;3.80;1.40;;;;;;;30.83;22.52;100056.94;5093430;28;20039;-77
2022/07/19 21:03:01;;;;;;;4.28;1.75;;;;;;;30.75;22.12;100050.13;5093423;28;20032;-77
2022/07/19 21:05:26;;;;;;;4.30;1.65;;;;;;;30.73;21.91;100058.22;5093056;28;20036;-78
2022/07/19 21:07:53;;;;;;;3.92;1.40;;;;;;;30.65;22.06;100052.19;5075281;28;20040;-78
2022/07/19 21:10:18;;;;;;;5.25;1.33;;;;;;;30.55;22.31;100059.03;5093201;28;20430;-77
2022/07/19 21:12:43;;;;;;;2.72;1.30;;;;;;;30.48;22.51;100062.19;5092981;28;20032;-78
2022/07/19 21:15:09;;;;;;;3.33;1.40;;;;;;;30.49;22.31;100061.72;5092824;28;20032;-78
2022/07/19 21:17:35;;;;;;;3.35;1.35;;;;;;;30.50;22.18;100059.69;5092681;28;20037;-77
2022/07/19 21:20:00;;;;;;;3.03;1.38;;;;;;;30.49;22.31;100060.94;5092768;28;20032;-78
2022/07/19 21:22:25;;;;;;;4.10;1.60;;;;;;;30.40;22.44;100061.75;5092937;28;20028;-78
2022/07/19 21:24:51;;;;;;;3.35;1.50;;;;;;;30.29;22.56;100055.06;5092885;28;20088;-78
2022/07/19 21:27:16;;;;;;;3.00;1.23;;;;;;;30.21;22.72;100055.38;5092597;28;20377;-78
2022/07/19 21:29:42;;;;;;;2.88;1.33;;;;;;;30.15;23.00;100053.69;5074492;28;20450;-77
2022/07/19 21:32:07;;;;;;;3.75;1.40;;;;;;;30.17;22.71;100057.59;5092690;28;20087;-78
2022/07/19 21:34:33;;;;;;;4.15;1.38;;;;;;;30.13;23.07;100051.34;5092384;28;20024;-77
2022/07/19 21:36:58;;;;;;;3.75;1.40;;;;;;;30.09;22.94;100053.56;5092584;28;20445;-78
2022/07/19 21:39:23;;;;;;;3.30;1.50;;;;;;;30.02;23.30;100056.63;5092279;28;20107;-77
2022/07/19 21:41:49;;;;;;;3.90;1.65;;;;;;;29.92;23.40;100052.28;5092916;28;20051;-78
2022/07/19 21:44:14;;;;;;;3.40;1.45;;;;;;;29.84;23.64;100057.44;5092078;28;20032;-79
2022/07/19 21:46:40;;;;;;;3.33;1.60;;;;;;;29.81;23.64;100057.59;5092363;28;20034;-78
2022/07/19 21:49:08;;;;;;;3.22;1.50;;;;;;;29.78;23.43;100048.09;5092174;28;20462;-78
2022/07/19 21:51:37;;;;;;;3.38;1.30;;;;;;;29.74;23.85;100058.69;5074149;28;20028;-77
2022/07/19 21:54:03;;;;;;;3.80;1.70;;;;;;;29.73;23.81;100056.34;5092035;28;20394;-77
2022/07/19 21:56:28;;;;;;;5.00;1.70;;;;;;;29.70;23.69;100054.47;5092138;28;20085;-78
2022/07/19 21:58:54;;;;;;;3.30;1.40;;;;;;;29.68;23.81;100056.97;5092069;28;20036;-78
2022/07/19 22:01:19;;;;;;;5.55;1.70;;;;;;;29.61;23.83;100050.44;5073871;28;20024;-78
2022/07/19 22:03:45;;;;;;;3.63;1.60;;;;;;;29.59;23.86;100052.91;5092367;28;20056;-79
2022/07/19 22:06:10;;;;;;;3.67;1.50;;;;;;;29.56;23.92;100053.84;5092316;28;20465;-78
2022/07/19 22:08:37;;;;;;;3.20;1.55;;;;;;;29.65;23.76;100050.25;5092075;28;20050;-79
2022/07/19 22:11:03;;;;;;;3.58;1.50;;;;;;;29.62;24.06;100054.78;5092325;28;20032;-79
2022/07/19 22:13:28;;;;;;;4.88;2.70;;;;;;;29.56;24.15;100053.84;5092528;28;20079;-79
2022/07/19 22:15:54;;;;;;;3.50;1.50;;;;;;;29.50;24.07;100055.72;5092004;28;20037;-77
2022/07/19 22:18:24;;;;;;;3.83;1.50;;;;;;;29.43;24.08;100055.22;5092219;28;20462;-77
2022/07/19 22:20:51;;;;;;;2.97;1.30;;;;;;;29.37;24.25;100057.84;5091925;28;20382;-77
2022/07/19 22:23:17;;;;;;;2.97;1.40;;;;;;;29.39;24.17;100060.94;5092607;28;20036;-77
2022/07/19 22:25:43;;;;;;;4.60;1.52;;;;;;;29.37;24.07;100063.44;5092347;28;20028;-77
2022/07/19 22:28:09;;;;;;;3.53;1.45;;;;;;;29.39;24.06;100055.34;5073626;28;20035;-77
2022/07/19 22:30:35;;;;;;;2.92;1.52;;;;;;;29.40;24.01;100059.72;5071840;28;20020;-76
2022/07/19 22:33:01;;;;;;;3.17;1.38;;;;;;;29.33;24.30;100058.00;5072191;28;20028;-78
2022/07/19 22:35:26;;;;;;;4.13;1.50;;;;;;;29.21;24.41;100060.91;5072337;28;20565;-78
2022/07/19 22:37:52;;;;;;;3.78;1.50;;;;;;;29.16;24.54;100056.72;5071693;28;20044;-79
2022/07/19 22:40:17;;;;;;;3.30;1.70;;;;;;;29.14;24.58;100058.41;5071768;28;20091;-77
2022/07/19 22:42:43;;;;;;;2.92;1.30;;;;;;;29.06;24.93;100057.94;5072071;28;20043;-78
2022/07/19 22:45:08;;;;;;;8.70;1.75;;;;;;;28.97;25.23;100058.69;5072061;28;20028;-77
2022/07/19 22:47:34;;;;;;;3.92;1.40;;;;;;;28.90;25.55;100052.59;5072059;28;20040;-78
2022/07/19 22:49:59;;;;;;;3.67;1.50;;;;;;;28.83;25.43;100055.66;5071872;28;20037;-77
2022/07/19 22:52:24;;;;;;;3.70;1.60;;;;;;;28.69;25.79;100052.16;5071692;28;20034;-77
2022/07/19 22:54:50;;;;;;;3.05;1.40;;;;;;;28.59;26.00;100055.41;5072007;28;20032;-77
2022/07/19 22:57:15;;;;;;;4.55;1.85;;;;;;;28.59;25.76;100050.56;5075538;28;20032;-76
2022/07/19 22:59:41;;;;;;;3.20;1.50;;;;;;;28.55;26.08;100046.34;5075711;28;20119;-77
2022/07/19 23:02:06;;;;;;;3.83;1.55;;;;;;;28.48;26.36;100043.81;5075619;28;20085;-77
2022/07/19 23:04:32;;;;;;;4.07;1.63;;;;;;;28.41;26.39;100042.88;5075538;28;20426;-78
2022/07/19 23:06:57;;;;;;;2.88;1.38;;;;;;;28.47;26.19;100045.84;5075189;28;20021;-78
2022/07/19 23:09:23;;;;;;;3.47;1.40;;;;;;;28.49;26.24;100048.19;5075323;28;20049;-77
2022/07/19 23:11:48;;;;;;;3.90;1.52;;;;;;;28.54;26.37;100039.94;5075230;28;20032;-78
2022/07/19 23:14:13;;;;;;;3.95;1.50;;;;;;;28.50;26.44;100044.91;5075090;28;20028;-77
2022/07/19 23:16:39;;;;;;;5.45;1.40;;;;;;;28.37;26.62;100038.63;5075065;28;20024;-77
2022/07/19 23:19:04;;;;;;;4.65;1.52;;;;;;;28.35;26.33;100036.28;5075377;28;20032;-78
2022/07/19 23:21:29;;;;;;;4.60;1.75;;;;;;;28.41;26.25;100036.47;5075347;28;20070;-77
2022/07/19 23:23:55;;;;;;;3.60;1.40;;;;;;;28.41;26.10;100034.47;5075252;28;20133;-76
2022/07/19 23:26:20;;;;;;;3.67;1.40;;;;;;;28.38;26.15;100026.97;5074995;28;20040;-77
2022/07/19 23:28:46;;;;;;;3.50;1.58;;;;;;;28.40;26.35;100030.09;5074941;28;20068;-77
2022/07/19 23:31:11;;;;;;;3.10;1.40;;;;;;;28.41;26.34;100030.88;5075208;28;20032;-77
2022/07/19 23:33:36;;;;;;;3.30;1.45;;;;;;;28.36;26.34;100023.84;5075154;28;20029;-78
2022/07/19 23:36:02;;;;;;;3.38;1.58;;;;;;;28.37;26.36;100024.63;5074961;28;20040;-77
2022/07/19 23:38:27;;;;;;;3.00;1.50;;;;;;;28.32;26.39;100025.22;5074791;28;20032;-78
2022/07/19 23:40:57;;;;;;;3.38;1.67;;;;;;;28.29;26.33;100023.34;5074635;28;20033;-77
2022/07/19 23:43:23;;;;;;;3.95;1.40;;;;;;;28.20;26.72;100014.84;5074964;28;20028;-77
2022/07/19 23:45:49;;;;;;;3.58;1.40;;;;;;;28.21;26.62;100024.81;5074898;28;20077;-77
2022/07/19 23:48:14;;;;;;;3.72;1.35;;;;;;;28.16;26.79;100018.56;5074802;28;20123;-77
2022/07/19 23:50:39;;;;;;;3.28;1.48;;;;;;;28.10;27.10;100020.41;5074856;28;20025;-77
2022/07/19 23:53:05;;;;;;;4.55;1.45;;;;;;;28.01;27.04;100017.53;5074783;28;20033;-77
2022/07/19 23:55:30;;;;;;;4.28;2.08;;;;;;;27.95;27.18;100024.19;5074827;28;20402;-78
2022/07/19 23:57:55;;;;;;;3.67;1.50;;;;;;;28.00;27.31;100015.97;5074663;28;20483;-77
